Time;durP1;ratioP1;P1;durP2;ratioP2;P2;SDS_P1;SDS_P2;PMS_P1;PMS_P2;Temp;Humidity;BMP_temperature;BMP_pressure;BME280_temperature;BME280_humidity;BME280_pressure;Samples;Min_cycle;Max_cycle;Signal;HPM_P1;HPM_P2
2021/01/20 00:01:33;;;;;;;5.18;1.67;;;4.10;99.90;;;;;;5033797;28;20050;-85
2021/01/20 00:03:59;;;;;;;2.60;2.40;;;4.10;99.90;;;;;;5033803;28;20049;-84
2021/01/20 00:06:25;;;;;;;2.20;1.83;;;4.10;99.90;;;;;;5048967;28;20049;-85
2021/01/20 00:08:52;;;;;;;2.47;1.90;;;4.10;99.90;;;;;;5033578;28;20469;-85
2021/01/20 00:11:18;;;;;;;2.60;1.63;;;4.20;99.90;;;;;;5033650;28;20089;-84
2021/01/20 00:13:45;;;;;;;3.78;1.77;;;4.20;99.90;;;;;;5016001;28;20125;-84
2021/01/20 00:16:11;;;;;;;2.90;2.05;;;4.20;99.90;;;;;;5033478;28;20077;-84
2021/01/20 00:18:37;;;;;;;3.15;1.67;;;4.20;99.90;;;;;;5033585;28;20444;-86
2021/01/20 00:21:04;;;;;;;3.22;1.90;;;4.20;99.90;;;;;;5016025;28;20049;-83
2021/01/20 00:23:30;;;;;;;1.60;1.50;;;4.20;99.90;;;;;;5033287;28;20053;-87
2021/01/20 00:25:56;;;;;;;3.25;1.58;;;4.10;99.90;;;;;;5015755;28;20049;-84
2021/01/20 00:28:22;;;;;;;1.95;1.85;;;4.10;99.90;;;;;;5033292;28;20482;-88
2021/01/20 00:30:49;;;;;;;2.28;1.80;;;4.00;99.90;;;;;;5015878;28;20060;-84
2021/01/20 00:33:15;;;;;;;2.83;1.75;;;4.10;99.90;;;;;;5016329;28;20056;-85
2021/01/20 00:35:42;;;;;;;1.27;1.20;;;4.10;99.90;;;;;;5033499;28;20144;-87
2021/01/20 00:38:08;;;;;;;1.85;1.45;;;4.10;99.90;;;;;;5015816;28;20449;-85
2021/01/20 00:40:34;;;;;;;1.67;1.48;;;4.10;99.90;;;;;;5015669;28;20046;-86
2021/01/20 00:43:00;;;;;;;1.50;1.40;;;4.00;99.90;;;;;;5032918;28;20299;-84
2021/01/20 00:45:27;;;;;;;2.55;1.90;;;4.00;99.90;;;;;;5015718;28;20045;-85
2021/01/20 00:47:53;;;;;;;1.95;1.70;;;3.90;99.90;;;;;;5016034;28;20045;-85
2021/01/20 00:50:19;;;;;;;1.73;1.55;;;3.90;99.90;;;;;;5015956;28;20065;-85
2021/01/20 00:52:45;;;;;;;1.70;1.50;;;3.90;99.90;;;;;;5033331;28;20080;-85
2021/01/20 00:55:14;;;;;;;3.05;1.70;;;3.90;99.90;;;;;;5033350;28;20057;-86
2021/01/20 00:57:41;;;;;;;1.50;1.40;;;3.90;99.90;;;;;;5018679;28;20084;-85
2021/01/20 01:00:08;;;;;;;1.85;1.75;;;3.80;99.90;;;;;;5037152;28;20128;-85
2021/01/20 01:02:38;;;;;;;1.30;1.20;;;3.90;99.90;;;;;;5019387;28;20057;-85
2021/01/20 01:05:05;;;;;;;1.70;1.60;;;3.80;99.90;;;;;;5052230;28;20054;-85
2021/01/20 01:07:31;;;;;;;1.92;1.40;;;3.80;99.90;;;;;;5037030;28;20050;-86
2021/01/20 01:09:57;;;;;;;1.50;1.40;;;3.80;99.90;;;;;;5019054;28;20095;-85
2021/01/20 01:12:24;;;;;;;1.83;1.67;;;3.80;99.90;;;;;;5036856;28;20046;-84
2021/01/20 01:14:50;;;;;;;2.40;1.55;;;3.90;99.90;;;;;;5036805;28;20102;-86
2021/01/20 01:17:17;;;;;;;1.50;1.40;;;3.80;99.90;;;;;;5019581;28;20049;-85
2021/01/20 01:19:43;;;;;;;2.42;1.70;;;3.80;99.90;;;;;;5019489;28;20053;-85
2021/01/20 01:22:09;;;;;;;2.63;1.65;;;3.90;99.90;;;;;;5019364;28;20081;-85
2021/01/20 01:24:36;;;;;;;1.45;1.33;;;3.90;99.90;;;;;;5052093;28;20061;-86
2021/01/20 01:27:02;;;;;;;1.60;1.50;;;3.90;99.90;;;;;;5019076;28;20052;-85
2021/01/20 01:29:29;;;;;;;1.58;1.30;;;3.80;99.90;;;;;;5019017;28;20041;-85
2021/01/20 01:31:55;;;;;;;2.28;1.40;;;3.80;99.90;;;;;;5019283;28;20060;-85
2021/01/20 01:34:22;;;;;;;1.67;1.33;;;3.80;99.90;;;;;;5036587;28;20048;-85
2021/01/20 01:36:48;;;;;;;1.30;1.20;;;3.80;99.90;;;;;;5019035;28;20057;-86
2021/01/20 01:39:15;;;;;;;2.05;1.50;;;3.80;99.90;;;;;;5036685;28;20104;-85
2021/01/20 01:41:42;;;;;;;1.38;1.30;;;3.70;99.90;;;;;;5018897;28;20144;-90
2021/01/20 01:44:08;;;;;;;4.38;2.15;;;3.70;99.90;;;;;;5035962;28;20060;-85
2021/01/20 01:46:35;;;;;;;1.70;1.40;;;3.70;99.90;;;;;;5036541;28;20464;-86
2021/01/20 01:49:02;;;;;;;1.65;1.55;;;3.70;99.90;;;;;;5018918;28;20440;-85
2021/01/20 01:51:29;;;;;;;1.63;1.52;;;3.70;99.90;;;;;;5019245;28;20053;-86
2021/01/20 01:53:55;;;;;;;2.10;1.70;;;3.70;99.90;;;;;;5036112;28;20093;-87
2021/01/20 01:56:25;;;;;;;1.80;1.52;;;3.70;99.90;;;;;;5018938;28;20055;-85
2021/01/20 01:58:52;;;;;;;1.70;1.60;;;3.70;99.90;;;;;;5036177;28;20042;-87
2021/01/20 02:01:19;;;;;;;2.67;1.50;;;3.60;99.90;;;;;;5018703;28;20049;-86
2021/01/20 02:03:53;;;;;;;1.88;1.77;;;3.50;99.90;;;;;;5036346;28;20148;-86
2021/01/20 02:06:19;;;;;;;2.00;1.90;;;3.60;99.90;;;;;;5018671;28;20128;-86
2021/01/20 02:08:49;;;;;;;1.90;1.75;;;3.50;99.90;;;;;;5035198;28;20063;-85
2021/01/20 02:11:21;;;;;;;1.52;1.42;;;3.50;99.90;;;;;;5018173;28;20103;-86
2021/01/20 02:14:17;;;;;;;1.88;1.77;;;3.50;99.90;;;;;;5036006;28;20049;-86
2021/01/20 02:17:00;;;;;;;1.75;1.65;;;3.40;99.90;;;;;;5018645;28;20132;-85
2021/01/20 02:19:54;;;;;;;3.10;2.10;;;3.40;99.90;;;;;;5018646;28;20053;-86
2021/01/20 02:22:41;;;;;;;2.08;1.80;;;3.30;99.90;;;;;;5018180;28;20556;-86
2021/01/20 02:25:30;;;;;;;3.15;2.22;;;3.30;99.90;;;;;;5035949;28;20091;-86
2021/01/20 02:28:19;;;;;;;1.90;1.80;;;3.30;99.90;;;;;;5036152;28;20137;-86
2021/01/20 02:30:47;;;;;;;2.40;2.17;;;3.30;99.90;;;;;;5036026;28;20264;-85
2021/01/20 02:33:21;;;;;;;2.25;2.05;;;3.30;99.90;;;;;;5018123;28;20045;-85
2021/01/20 02:35:55;;;;;;;4.03;1.90;;;3.40;99.90;;;;;;5035839;28;20049;-86
2021/01/20 02:38:22;;;;;;;;;;;3.30;99.90;;;;;;5019019;28;20136;-85
2021/01/20 02:40:49;;;;;;;2.45;2.30;;;3.40;99.90;;;;;;5035266;28;19925;-85
2021/01/20 02:43:24;;;;;;;3.50;2.60;;;3.50;99.90;;;;;;5017835;28;20049;-86
2021/01/20 02:45:51;;;;;;;2.22;2.00;;;3.50;99.90;;;;;;5035204;28;20049;-86
2021/01/20 02:48:18;;;;;;;2.10;1.92;;;3.60;99.90;;;;;;5035820;28;20046;-86
2021/01/20 02:50:45;;;;;;;2.45;2.25;;;3.60;99.90;;;;;;5017732;28;20088;-85
2021/01/20 02:53:15;;;;;;;2.45;2.35;;;3.60;99.90;;;;;;5017755;28;20049;-85
2021/01/20 02:55:47;;;;;;;3.63;2.72;;;3.70;99.90;;;;;;5017968;28;20041;-85
2021/01/20 02:58:20;;;;;;;2.58;2.40;;;3.80;99.90;;;;;;5035403;28;20051;-87
2021/01/20 03:00:49;;;;;;;3.53;3.03;;;3.70;99.90;;;;;;5017563;28;20084;-86
2021/01/20 03:03:16;;;;;;;2.70;2.50;;;3.70;99.90;;;;;;5018155;28;20117;-85
2021/01/20 03:05:44;;;;;;;2.80;2.60;;;3.80;99.90;;;;;;5017812;28;20104;-86
2021/01/20 03:08:12;;;;;;;2.85;2.63;;;3.80;99.90;;;;;;5017379;28;20132;-85
2021/01/20 03:10:38;;;;;;;2.70;2.50;;;3.80;99.90;;;;;;5034759;28;20092;-84
2021/01/20 03:13:05;;;;;;;2.65;2.45;;;3.80;99.90;;;;;;5017200;28;20464;-85
2021/01/20 03:15:40;;;;;;;2.80;2.60;;;3.80;99.90;;;;;;5034829;28;20099;-84
2021/01/20 03:18:07;;;;;;;3.08;2.85;;;3.90;99.90;;;;;;5017676;28;20065;-85
2021/01/20 03:20:34;;;;;;;2.78;2.58;;;3.90;99.90;;;;;;5034980;28;20053;-85
2021/01/20 03:23:00;;;;;;;3.10;2.90;;;3.80;99.90;;;;;;5034338;28;20063;-85
2021/01/20 03:25:28;;;;;;;3.20;3.00;;;3.90;99.90;;;;;;5017258;28;20057;-85
2021/01/20 03:27:54;;;;;;;2.95;2.75;;;3.90;99.90;;;;;;5017181;28;20045;-84
2021/01/20 03:30:21;;;;;;;3.85;2.80;;;3.80;99.90;;;;;;5050099;28;20104;-85
2021/01/20 03:32:47;;;;;;;3.13;2.92;;;3.80;99.90;;;;;;5016815;28;20107;-85
2021/01/20 03:35:14;;;;;;;3.35;2.95;;;3.80;99.90;;;;;;5050212;28;20103;-85
2021/01/20 03:37:40;;;;;;;2.85;2.65;;;3.80;99.90;;;;;;5017000;28;20049;-85
2021/01/20 03:40:08;;;;;;;3.58;3.28;;;3.80;99.90;;;;;;5016820;28;20128;-85
2021/01/20 03:42:37;;;;;;;3.70;3.40;;;3.70;99.90;;;;;;5016929;28;20057;-86
2021/01/20 03:45:05;;;;;;;3.50;3.20;;;3.70;99.90;;;;;;5016483;28;20061;-85
2021/01/20 03:47:31;;;;;;;3.45;3.25;;;3.70;99.90;;;;;;5033970;28;20187;-86
2021/01/20 03:49:58;;;;;;;3.10;2.90;;;3.70;99.90;;;;;;5034213;28;20045;-85
2021/01/20 03:52:24;;;;;;;3.63;3.35;;;3.60;99.90;;;;;;5016828;28;20095;-85
2021/01/20 03:54:50;;;;;;;3.67;3.38;;;3.60;99.90;;;;;;5034084;28;20129;-85
2021/01/20 03:57:17;;;;;;;2.92;2.72;;;3.60;99.90;;;;;;5034221;28;20053;-85
2021/01/20 03:59:43;;;;;;;3.30;3.10;;;3.50;99.90;;;;;;5016898;28;20563;-84
2021/01/20 04:02:09;;;;;;;2.95;2.70;;;3.60;99.90;;;;;;5016293;28;20091;-85
2021/01/20 04:04:36;;;;;;;2.97;2.78;;;3.50;99.90;;;;;;5033971;28;20053;-85
2021/01/20 04:07:03;;;;;;;2.90;2.60;;;3.60;99.90;;;;;;5016653;28;20041;-85
2021/01/20 04:09:29;;;;;;;3.17;2.97;;;3.60;99.90;;;;;;5033995;28;20099;-85
2021/01/20 04:11:56;;;;;;;3.25;2.90;;;3.50;99.90;;;;;;5016267;28;20124;-86
2021/01/20 04:14:22;;;;;;;3.35;3.08;;;3.60;99.90;;;;;;5033655;28;20459;-85
2021/01/20 04:16:49;;;;;;;3.95;3.20;;;3.50;99.90;;;;;;5016128;28;20092;-85
2021/01/20 04:19:15;;;;;;;3.45;3.15;;;3.50;99.90;;;;;;5016263;28;20405;-85
2021/01/20 04:21:41;;;;;;;3.25;2.97;;;3.40;99.90;;;;;;5033520;28;20141;-85
2021/01/20 04:24:07;;;;;;;3.47;3.17;;;3.50;99.90;;;;;;5033902;28;20049;-87
2021/01/20 04:26:34;;;;;;;4.47;4.00;;;3.50;99.90;;;;;;5033885;28;20129;-85
2021/01/20 04:29:00;;;;;;;4.97;3.20;;;3.40;99.90;;;;;;5033675;28;20053;-85
2021/01/20 04:31:27;;;;;;;3.38;3.17;;;3.40;99.90;;;;;;5033278;28;20073;-85
2021/01/20 04:33:53;;;;;;;3.33;2.83;;;3.50;99.90;;;;;;5016580;28;20100;-85
2021/01/20 04:36:20;;;;;;;3.70;3.40;;;3.40;99.90;;;;;;5033764;28;20079;-84
2021/01/20 04:38:46;;;;;;;3.35;3.00;;;3.50;99.90;;;;;;5016102;28;20049;-85
2021/01/20 04:41:12;;;;;;;3.53;3.13;;;3.50;99.90;;;;;;5048921;28;20137;-87
2021/01/20 04:43:41;;;;;;;3.35;3.15;;;3.50;99.90;;;;;;5016108;28;20081;-86
2021/01/20 04:46:07;;;;;;;4.22;3.55;;;3.50;99.90;;;;;;5033614;28;20398;-86
2021/01/20 04:48:35;;;;;;;3.33;3.10;;;3.40;99.90;;;;;;5033522;28;20100;-85
2021/01/20 04:51:04;;;;;;;3.42;3.13;;;3.40;99.90;;;;;;5016181;28;20561;-84
2021/01/20 04:53:34;;;;;;;3.63;3.33;;;3.40;99.90;;;;;;5016121;28;20049;-85
2021/01/20 04:56:05;;;;;;;3.10;2.88;;;3.40;99.90;;;;;;5033734;28;20508;-85
2021/01/20 04:58:32;;;;;;;3.00;2.80;;;3.40;99.90;;;;;;5016252;28;20077;-85
2021/01/20 05:00:58;;;;;;;3.17;2.97;;;3.40;99.90;;;;;;5033501;28;20124;-85
2021/01/20 05:03:25;;;;;;;3.10;2.85;;;3.30;99.90;;;;;;5016936;28;20049;-85
2021/01/20 05:05:54;;;;;;;2.80;2.60;;;3.20;99.90;;;;;;5015921;28;20056;-85
2021/01/20 05:08:21;;;;;;;3.25;2.95;;;3.30;99.90;;;;;;5015921;28;20497;-86
2021/01/20 05:10:51;;;;;;;3.15;2.95;;;3.30;99.90;;;;;;5015649;28;20462;-86
2021/01/20 05:13:31;;;;;;;3.60;3.22;;;3.30;99.90;;;;;;5016058;28;20099;-86
2021/01/20 05:15:57;;;;;;;3.20;3.00;;;3.30;99.90;;;;;;5016572;28;20076;-86
2021/01/20 05:18:25;;;;;;;2.83;2.63;;;3.30;99.90;;;;;;5015939;28;20072;-85
2021/01/20 05:20:52;;;;;;;3.17;2.88;;;3.20;99.90;;;;;;5015930;28;20045;-85
2021/01/20 05:23:25;;;;;;;3.45;2.85;;;3.10;99.90;;;;;;5048661;28;20136;-85
2021/01/20 05:25:52;;;;;;;3.08;2.58;;;3.00;99.90;;;;;;5016117;28;20448;-85
2021/01/20 05:28:23;;;;;;;2.95;2.65;;;3.00;99.90;;;;;;5033320;28;20096;-85
2021/01/20 05:30:52;;;;;;;7.03;4.57;;;3.00;99.90;;;;;;5015423;28;20420;-85
2021/01/20 05:33:26;;;;;;;2.08;1.95;;;3.20;99.90;;;;;;5015821;28;20120;-85
2021/01/20 05:36:12;;;;;;;2.08;1.95;;;3.20;99.90;;;;;;5033455;28;20406;-86
2021/01/20 05:38:44;;;;;;;4.15;2.72;;;3.30;99.90;;;;;;5015744;28;20052;-85
2021/01/20 05:41:20;;;;;;;2.55;2.10;;;3.40;99.90;;;;;;5015537;28;20053;-86
2021/01/20 05:43:49;;;;;;;2.78;2.20;;;3.40;99.90;;;;;;5034486;28;20049;-85
2021/01/20 05:46:36;;;;;;;3.00;2.80;;;3.40;99.90;;;;;;5036490;28;20059;-85
2021/01/20 05:49:05;;;;;;;2.55;2.35;;;3.60;99.90;;;;;;5036614;28;20049;-86
2021/01/20 05:51:42;;;;;;;2.72;2.53;;;3.50;99.90;;;;;;5036365;28;20049;-86
2021/01/20 05:54:09;;;;;;;3.08;2.70;;;3.60;99.90;;;;;;5036291;28;20049;-85
2021/01/20 05:56:36;;;;;;;2.33;2.22;;;3.60;99.90;;;;;;5018754;28;20504;-85
2021/01/20 05:59:09;;;;;;;2.83;2.63;;;3.60;99.90;;;;;;5018630;28;20541;-86
2021/01/20 06:01:39;;;;;;;3.72;2.40;;;3.60;99.90;;;;;;5036330;28;20064;-85
2021/01/20 06:04:06;;;;;;;2.53;2.33;;;3.70;99.90;;;;;;5035911;28;20053;-86
2021/01/20 06:06:33;;;;;;;2.75;2.55;;;3.80;99.90;;;;;;5035818;28;20099;-85
2021/01/20 06:09:01;;;;;;;2.58;2.40;;;3.80;99.90;;;;;;5035934;28;20123;-85
2021/01/20 06:11:27;;;;;;;2.85;2.65;;;3.80;99.90;;;;;;5018282;28;20136;-86
2021/01/20 06:13:54;;;;;;;4.50;3.05;;;3.80;99.90;;;;;;5018557;28;20136;-85
2021/01/20 06:16:24;;;;;;;3.97;2.53;;;3.80;99.90;;;;;;5036138;28;20140;-86
2021/01/20 06:18:54;;;;;;;2.28;2.17;;;3.80;99.90;;;;;;5018651;28;20060;-86
2021/01/20 06:21:23;;;;;;;3.63;2.70;;;3.80;99.90;;;;;;5035903;28;20084;-86
2021/01/20 06:24:09;;;;;;;2.83;2.47;;;3.80;99.90;;;;;;5018993;28;20553;-86
2021/01/20 06:26:45;;;;;;;2.60;2.40;;;3.70;99.90;;;;;;5018643;28;20085;-86
2021/01/20 06:29:13;;;;;;;2.53;2.33;;;3.70;99.90;;;;;;5035809;28;20107;-86
2021/01/20 06:31:43;;;;;;;4.32;2.60;;;3.70;99.90;;;;;;5018283;28;20409;-85
2021/01/20 06:34:12;;;;;;;3.13;2.83;;;3.70;99.90;;;;;;5018991;28;20093;-87
2021/01/20 06:36:38;;;;;;;2.78;2.50;;;3.70;99.90;;;;;;5035715;28;20107;-86
2021/01/20 06:39:28;;;;;;;2.92;2.65;;;3.70;99.90;;;;;;5051084;28;20220;-86
2021/01/20 06:41:55;;;;;;;3.92;2.55;;;3.60;99.90;;;;;;5035489;28;20042;-85
2021/01/20 06:44:22;;;;;;;3.22;2.60;;;3.60;99.90;;;;;;5035411;28;20469;-86
2021/01/20 06:46:57;;;;;;;2.42;2.22;;;3.60;99.90;;;;;;5017618;28;20111;-85
2021/01/20 06:49:33;;;;;;;2.72;2.53;;;3.60;99.90;;;;;;5018222;28;20053;-86
2021/01/20 06:52:07;;;;;;;2.85;2.30;;;3.50;99.90;;;;;;5017851;28;20050;-86
2021/01/20 06:54:42;;;;;;;2.90;2.70;;;3.50;99.90;;;;;;5017563;28;20107;-86
2021/01/20 06:57:31;;;;;;;3.30;2.40;;;3.50;99.90;;;;;;5017762;28;20138;-85
2021/01/20 07:00:07;;;;;;;2.78;2.45;;;3.50;99.90;;;;;;5017713;28;20129;-85
2021/01/20 07:02:37;;;;;;;3.10;2.90;;;3.40;99.90;;;;;;5017512;28;20057;-86
2021/01/20 07:05:05;;;;;;;4.57;2.88;;;3.40;99.90;;;;;;5034990;28;20041;-85
2021/01/20 07:07:52;;;;;;;5.20;3.03;;;3.40;99.90;;;;;;5017352;28;20084;-86
2021/01/20 07:10:23;;;;;;;2.50;2.40;;;3.40;99.90;;;;;;5034945;28;20060;-85
2021/01/20 07:13:13;;;;;;;2.58;2.38;;;3.40;99.90;;;;;;5035238;28;20056;-86
2021/01/20 07:15:45;;;;;;;3.70;2.67;;;3.40;99.90;;;;;;5017253;28;20049;-86
2021/01/20 07:18:13;;;;;;;3.17;2.22;;;3.40;99.90;;;;;;5034760;28;20564;-86
2021/01/20 07:20:41;;;;;;;3.03;2.72;;;3.30;99.90;;;;;;5017069;28;20489;-86
2021/01/20 07:23:08;;;;;;;3.08;2.88;;;3.30;99.90;;;;;;5034290;28;20141;-86
2021/01/20 07:25:34;;;;;;;4.03;3.22;;;3.20;99.90;;;;;;5034765;28;20107;-86
2021/01/20 07:28:01;;;;;;;3.85;3.33;;;3.20;99.90;;;;;;5034679;28;20045;-86
2021/01/20 07:30:28;;;;;;;4.20;3.60;;;3.10;99.90;;;;;;5050283;28;20045;-86
2021/01/20 07:32:55;;;;;;;22.10;13.57;;;3.00;99.90;;;;;;5034249;28;20050;-86
2021/01/20 07:35:28;;;;;;;9.43;5.40;;;2.80;99.90;;;;;;5017329;28;20057;-86
2021/01/20 07:38:04;;;;;;;5.28;4.38;;;2.80;99.90;;;;;;5017092;28;20111;-86
2021/01/20 07:40:33;;;;;;;7.07;4.30;;;2.80;99.90;;;;;;5035159;28;20127;-86
2021/01/20 07:43:00;;;;;;;20.00;9.95;;;2.70;99.90;;;;;;5034311;28;20102;-87
2021/01/20 07:45:40;;;;;;;10.63;5.47;;;2.70;99.90;;;;;;5016952;28;20063;-86
2021/01/20 07:48:08;;;;;;;5.72;4.38;;;2.70;99.90;;;;;;5016932;28;20058;-85
2021/01/20 07:50:48;;;;;;;6.05;4.50;;;2.80;99.90;;;;;;5034098;28;20136;-86
2021/01/20 07:53:19;;;;;;;5.85;4.47;;;2.90;99.90;;;;;;5017623;28;20045;-86
2021/01/20 07:55:47;;;;;;;4.00;3.60;;;2.90;99.90;;;;;;5034673;28;20461;-86
2021/01/20 07:58:14;;;;;;;4.47;3.17;;;3.00;99.90;;;;;;5034169;28;20077;-86
2021/01/20 08:00:41;;;;;;;3.08;2.60;;;3.00;99.90;;;;;;5033979;28;20136;-86
2021/01/20 08:03:07;;;;;;;3.45;2.75;;;3.10;99.90;;;;;;5033709;28;20088;-85
2021/01/20 08:05:34;;;;;;;3.33;2.47;;;3.40;99.90;;;;;;5033714;28;20084;-88
2021/01/20 08:08:14;;;;;;;2.15;2.05;;;3.60;99.90;;;;;;5033537;28;20053;-86
2021/01/20 08:10:42;;;;;;;4.15;2.38;;;3.80;99.90;;;;;;5033445;28;20132;-85
2021/01/20 08:13:12;;;;;;;2.20;2.10;;;3.90;99.90;;;;;;5016446;28;20045;-87
2021/01/20 08:15:41;;;;;;;2.45;2.25;;;4.00;99.90;;;;;;5016545;28;20049;-86
2021/01/20 08:18:09;;;;;;;3.53;2.67;;;4.10;99.90;;;;;;5033613;28;20409;-86
2021/01/20 08:20:36;;;;;;;2.88;2.35;;;4.10;99.90;;;;;;5016479;28;20056;-86
2021/01/20 08:23:05;;;;;;;2.90;2.00;;;4.10;99.90;;;;;;5015727;28;20442;-85
2021/01/20 08:25:32;;;;;;;2.33;2.22;;;4.20;99.90;;;;;;5034066;28;20539;-86
2021/01/20 08:28:11;;;;;;;2.75;2.42;;;4.20;99.90;;;;;;5033941;28;20397;-85
2021/01/20 08:30:38;;;;;;;4.50;2.35;;;4.10;99.90;;;;;;5016572;28;20130;-86
2021/01/20 08:33:07;;;;;;;3.83;2.60;;;4.20;99.90;;;;;;5016185;28;20464;-86
2021/01/20 08:35:37;;;;;;;2.60;1.95;;;4.20;99.90;;;;;;5033748;28;20060;-86
2021/01/20 08:38:05;;;;;;;2.90;2.58;;;4.20;99.90;;;;;;5034166;28;20049;-85
2021/01/20 08:40:32;;;;;;;3.35;3.05;;;4.20;99.90;;;;;;5049404;28;20133;-86
2021/01/20 08:42:59;;;;;;;4.20;3.13;;;4.10;99.90;;;;;;5016164;28;20053;-86
2021/01/20 08:45:40;;;;;;;3.22;2.92;;;4.20;99.90;;;;;;5019077;28;20053;-86
2021/01/20 08:48:08;;;;;;;7.80;5.95;;;4.20;99.90;;;;;;5033758;28;20085;-85
2021/01/20 08:50:43;;;;;;;4.43;4.05;;;4.30;99.90;;;;;;5033557;28;20049;-86
2021/01/20 08:53:25;;;;;;;3.80;3.50;;;4.40;99.90;;;;;;5016427;28;20053;-86
2021/01/20 08:55:55;;;;;;;3.60;3.30;;;4.40;99.90;;;;;;5017140;28;20045;-86
2021/01/20 08:58:34;;;;;;;9.88;8.88;;;4.40;99.90;;;;;;5033952;28;20494;-86
2021/01/20 09:01:15;;;;;;;22.75;17.08;;;4.50;99.90;;;;;;5016563;28;20058;-86
2021/01/20 09:04:02;;;;;;;9.45;7.95;;;4.60;99.90;;;;;;5033933;28;20132;-86
2021/01/20 09:06:29;;;;;;;7.00;5.05;;;4.60;99.90;;;;;;5017491;28;20485;-86
2021/01/20 09:08:56;;;;;;;137.82;68.95;;;4.70;99.90;;;;;;5016173;28;20072;-86
2021/01/20 09:11:23;;;;;;;49.65;28.45;;;4.80;99.90;;;;;;5048277;28;20103;-86
2021/01/20 09:13:50;;;;;;;4.80;4.03;;;4.80;99.90;;;;;;5015856;28;20092;-87
2021/01/20 09:16:25;;;;;;;7.47;6.72;;;4.80;99.90;;;;;;5049702;28;20581;-86
2021/01/20 09:18:51;;;;;;;2.72;2.50;;;4.90;99.90;;;;;;5036363;28;20069;-87
2021/01/20 09:21:17;;;;;;;2.40;2.17;;;4.90;99.90;;;;;;5019854;28;20046;-86
2021/01/20 09:23:43;;;;;;;3.28;2.30;;;5.00;99.90;;;;;;5036822;28;20433;-86
2021/01/20 09:26:10;;;;;;;2.28;2.08;;;5.10;99.90;;;;;;5036741;28;20422;-86
2021/01/20 09:28:36;;;;;;;2.60;1.95;;;5.20;99.90;;;;;;5036541;28;20068;-86
2021/01/20 09:31:03;;;;;;;2.40;2.20;;;5.30;99.90;;;;;;5019450;28;20100;-86
2021/01/20 09:33:29;;;;;;;3.00;2.22;;;5.30;99.90;;;;;;5019208;28;20046;-86
2021/01/20 09:35:55;;;;;;;3.00;2.00;;;5.40;99.90;;;;;;5035993;28;20049;-86
2021/01/20 09:38:23;;;;;;;1.85;1.75;;;5.50;99.90;;;;;;5052236;28;20041;-86
2021/01/20 09:40:49;;;;;;;2.45;2.17;;;5.60;99.90;;;;;;5018727;28;20054;-86
2021/01/20 09:43:16;;;;;;;3.15;2.10;;;5.70;99.90;;;;;;5019005;28;20141;-86
2021/01/20 09:45:44;;;;;;;2.13;1.92;;;5.60;99.90;;;;;;5052130;28;20543;-87
2021/01/20 09:48:10;;;;;;;2.55;2.35;;;5.70;99.90;;;;;;5019172;28;20482;-86
2021/01/20 09:50:37;;;;;;;2.45;1.88;;;5.80;99.90;;;;;;5036134;28;20060;-86
2021/01/20 09:53:05;;;;;;;1.92;1.83;;;5.90;99.90;;;;;;5018926;28;20049;-86
2021/01/20 09:55:32;;;;;;;5.05;1.70;;;5.90;99.90;;;;;;5036447;28;20453;-86
2021/01/20 09:58:03;;;;;;;2.28;1.67;;;6.00;99.90;;;;;;5018721;28;20120;-86
2021/01/20 10:00:30;;;;;;;1.63;1.52;;;6.00;99.90;;;;;;5036248;28;20045;-87
2021/01/20 10:03:00;;;;;;;3.47;1.42;;;6.00;99.90;;;;;;5036127;28;20220;-86
2021/01/20 10:05:26;;;;;;;1.50;1.40;;;6.20;99.90;;;;;;5018547;28;20429;-86
2021/01/20 10:07:52;;;;;;;2.92;1.60;;;6.40;99.90;;;;;;5036005;28;20049;-87
2021/01/20 10:10:19;;;;;;;2.25;1.30;;;6.40;99.90;;;;;;5036601;28;20509;-87
2021/01/20 10:12:45;;;;;;;1.50;1.40;;;6.50;99.90;;;;;;5037010;28;20096;-86
2021/01/20 10:15:12;;;;;;;1.77;1.67;;;6.80;99.90;;;;;;5018989;28;20589;-87
2021/01/20 10:17:38;;;;;;;2.50;2.15;;;7.10;99.90;;;;;;5035804;28;20132;-87
2021/01/20 10:20:05;;;;;;;1.58;1.48;;;7.60;99.90;;;;;;5035890;28;20140;-87
2021/01/20 10:22:32;;;;;;;2.33;2.13;;;8.20;99.90;;;;;;5014953;28;20494;-87
2021/01/20 10:24:59;;;;;;;1.80;1.67;;;8.70;99.90;;;;;;5047804;28;20583;-87
2021/01/20 10:27:25;;;;;;;1.65;1.50;;;8.90;99.90;;;;;;5048287;28;20077;-87
2021/01/20 10:29:51;;;;;;;1.55;1.45;;;9.30;99.60;;;;;;5047146;28;20412;-87
2021/01/20 10:32:18;;;;;;;1.60;1.50;;;9.20;99.60;;;;;;5047920;28;20177;-87
2021/01/20 10:34:44;;;;;;;1.55;1.45;;;9.30;99.00;;;;;;5047874;28;20136;-87
2021/01/20 10:37:11;;;;;;;2.42;1.40;;;8.90;99.90;;;;;;5015921;28;20085;-87
2021/01/20 10:39:37;;;;;;;1.52;1.42;;;9.00;99.60;;;;;;5047875;28;20129;-87
2021/01/20 10:42:03;;;;;;;2.00;1.40;;;8.90;99.90;;;;;;5047186;28;20468;-87
2021/01/20 10:44:30;;;;;;;1.50;1.40;;;8.70;99.90;;;;;;5015785;28;20131;-87
2021/01/20 10:46:56;;;;;;;1.85;1.63;;;8.80;99.90;;;;;;5047440;28;20129;-87
2021/01/20 10:49:22;;;;;;;1.92;1.60;;;8.80;99.90;;;;;;5015527;28;20145;-87
2021/01/20 10:51:50;;;;;;;1.50;1.40;;;8.80;99.90;;;;;;5047248;28;20129;-87
2021/01/20 10:54:17;;;;;;;1.48;1.38;;;8.70;99.90;;;;;;5047824;28;20435;-87
2021/01/20 10:56:43;;;;;;;1.35;1.25;;;8.60;99.90;;;;;;5015343;28;20056;-87
2021/01/20 10:59:09;;;;;;;1.98;1.33;;;8.50;99.90;;;;;;5015303;28;20099;-86
2021/01/20 11:01:37;;;;;;;1.50;1.40;;;8.50;99.90;;;;;;5047614;28;20141;-87
2021/01/20 11:04:04;;;;;;;1.65;1.52;;;8.30;99.90;;;;;;5047355;28;20049;-87
2021/01/20 11:06:30;;;;;;;2.15;1.50;;;8.20;99.90;;;;;;5015983;28;20057;-87
2021/01/20 11:08:59;;;;;;;1.48;1.38;;;8.40;99.90;;;;;;5047153;28;20076;-87
2021/01/20 11:11:26;;;;;;;1.08;1.08;;;8.60;99.90;;;;;;5046869;28;20508;-87
2021/01/20 11:13:53;;;;;;;1.77;1.63;;;8.70;99.90;;;;;;5046871;28;20132;-87
2021/01/20 11:16:19;;;;;;;2.13;1.50;;;8.60;99.90;;;;;;5046760;28;20556;-87
2021/01/20 11:18:45;;;;;;;2.22;1.67;;;8.70;99.90;;;;;;5013728;28;20049;-87
2021/01/20 11:21:14;;;;;;;1.90;1.80;;;8.90;99.40;;;;;;5046510;28;20068;-87
2021/01/20 11:23:45;;;;;;;2.67;1.80;;;9.00;99.30;;;;;;5046455;28;20065;-87
2021/01/20 11:26:12;;;;;;;3.72;3.42;;;9.30;99.90;;;;;;5015227;28;20511;-87
2021/01/20 11:28:38;;;;;;;3.13;1.92;;;9.40;98.40;;;;;;5015825;28;20084;-87
2021/01/20 11:31:04;;;;;;;2.55;1.52;;;9.80;97.00;;;;;;5046161;28;20053;-87
2021/01/20 11:33:38;;;;;;;;;;;9.90;93.50;;;;;;5044782;28;20096;-87
2021/01/20 11:36:06;;;;;;;1.73;1.63;;;9.70;93.60;;;;;;5014476;28;19921;-87
2021/01/20 11:38:33;;;;;;;2.15;1.42;;;9.20;94.10;;;;;;5046288;28;20046;-88
2021/01/20 11:40:59;;;;;;;3.45;1.55;;;9.00;95.50;;;;;;5013638;28;20096;-88
2021/01/20 11:43:26;;;;;;;1.88;1.60;;;8.90;98.00;;;;;;5014435;28;20050;-87
2021/01/20 11:45:52;;;;;;;2.42;1.58;;;8.60;99.90;;;;;;5014092;28;20084;-88
2021/01/20 11:48:19;;;;;;;1.15;1.15;;;8.50;99.90;;;;;;5014208;28;20104;-90
2021/01/20 11:50:46;;;;;;;1.10;1.10;;;8.60;99.90;;;;;;5014195;28;20046;-88
2021/01/20 11:53:17;;;;;;;1.50;1.40;;;8.60;99.90;;;;;;5014303;28;20092;-88
2021/01/20 11:55:43;;;;;;;1.50;1.40;;;8.80;99.90;;;;;;5014243;28;20108;-87
2021/01/20 11:58:10;;;;;;;1.83;1.70;;;8.60;99.90;;;;;;5014250;28;20046;-87
2021/01/20 12:00:37;;;;;;;2.05;1.75;;;8.70;99.90;;;;;;5046429;28;20183;-87
2021/01/20 12:03:03;;;;;;;2.03;1.73;;;8.50;99.90;;;;;;5046075;28;20120;-87
2021/01/20 12:05:30;;;;;;;4.75;2.20;;;8.20;99.90;;;;;;5014155;28;20057;-87
2021/01/20 12:07:56;;;;;;;1.75;1.65;;;8.00;99.90;;;;;;5045653;28;20145;-88
2021/01/20 12:10:22;;;;;;;1.80;1.70;;;8.00;99.90;;;;;;5046209;28;20114;-88
2021/01/20 12:12:48;;;;;;;1.80;1.50;;;8.00;99.90;;;;;;5013513;28;20085;-88
2021/01/20 12:15:15;;;;;;;2.08;1.75;;;8.30;99.90;;;;;;5014102;28;20410;-88
2021/01/20 12:17:42;;;;;;;3.38;1.90;;;8.30;99.90;;;;;;5014676;28;20052;-88
2021/01/20 12:20:09;;;;;;;2.30;1.92;;;8.40;99.90;;;;;;5046304;28;20080;-89
2021/01/20 12:22:36;;;;;;;2.83;2.38;;;8.40;99.90;;;;;;5012883;28;20552;-88
2021/01/20 12:25:04;;;;;;;5.43;2.40;;;8.30;99.90;;;;;;5013995;28;20069;-87
2021/01/20 12:27:31;;;;;;;1.92;1.83;;;8.40;99.90;;;;;;5045604;28;20108;-88
2021/01/20 12:29:58;;;;;;;3.28;2.20;;;8.40;99.90;;;;;;5045697;28;20057;-88
2021/01/20 12:32:25;;;;;;;2.38;1.92;;;8.50;99.90;;;;;;5046666;28;20089;-87
2021/01/20 12:34:52;;;;;;;2.80;2.15;;;8.50;99.90;;;;;;5046693;28;20057;-88
2021/01/20 12:37:18;;;;;;;4.80;2.00;;;8.30;99.90;;;;;;5046432;28;20509;-87
2021/01/20 12:39:45;;;;;;;1.90;1.75;;;8.20;99.90;;;;;;5047039;28;20060;-88
2021/01/20 12:42:11;;;;;;;2.45;1.60;;;8.10;99.90;;;;;;5015683;28;20093;-88
2021/01/20 12:44:38;;;;;;;2.00;1.55;;;8.00;99.90;;;;;;5049148;28;20045;-89
2021/01/20 12:47:04;;;;;;;6.28;1.83;;;7.80;99.90;;;;;;5047248;28;20046;-88
2021/01/20 12:49:30;;;;;;;2.33;1.75;;;7.80;99.90;;;;;;5014882;28;20100;-88
2021/01/20 12:51:56;;;;;;;2.35;1.67;;;7.70;99.90;;;;;;5047349;28;20136;-89
2021/01/20 12:54:23;;;;;;;2.17;1.98;;;7.60;99.90;;;;;;5018506;28;20110;-87
2021/01/20 12:56:49;;;;;;;3.90;1.65;;;7.40;99.90;;;;;;5051623;28;20085;-89
2021/01/20 12:59:15;;;;;;;2.00;1.90;;;7.40;99.90;;;;;;5019589;28;20134;-88
2021/01/20 13:01:41;;;;;;;3.72;1.90;;;7.30;99.90;;;;;;5017724;28;20054;-89
2021/01/20 13:04:07;;;;;;;3.35;2.28;;;7.30;99.90;;;;;;5017841;28;20119;-88
2021/01/20 13:06:34;;;;;;;2.92;1.98;;;7.20;99.90;;;;;;5016657;28;20465;-89